Danville, Louisiana
Current Conditions -  °F | °C
As of 1:15 PM on Friday 28 Nov 2014 (Local Time) from KRSN Reporting Station
Clear Clear  
Wind Chill: 60°   Ceiling: Unl
Heat Index: 60°   Visibility: 10mi
Dew Point: 33°   Wind: 7mph
Humidity: 36%   Direction: 180°S
Pressure: 30.29"   Gusts: NA
Location:  32.3029°N, 92.924°W
Report Text: KRSN 281915Z AUTO 18006KT 10SM CLR 16/01 A3029 RMK AO2 T01550005
Loading
Personal Weather Stations






























Interactive Weather Map New forecast layout! Learn more

10-Day Weather Forecast

Advertisements
Track Severe Weather on mobile